This is the latest recevied weather packets stored in our database for station/object CW79215. If no packets are shown the sender has not sent any weather packets the latest 10 day(s).
| Time | Temp. | Humidity | Pressure | Rain* | Wind** | Luminosity | Snow |
|---|---|---|---|---|---|---|---|
| 1777173732 | 5.56° C | 66% | 1025.4 hPa | - | - | - | - |
| 1777172832 | 5.56° C | 67% | 1025.2 hPa | - | - | - | - |
| 1777171932 | 5.56° C | 66% | 1025 hPa | - | - | - | - |
| 1777171032 | 5.56° C | 66% | 1025 hPa | - | - | - | - |
| 1777170132 | 6.11° C | 65% | 1024.9 hPa | - | - | - | - |
| 1777169231 | 6.11° C | 64% | 1025 hPa | - | - | - | - |
| 1777168331 | 6.67° C | 64% | 1024.9 hPa | - | - | - | - |
| 1777167431 | 6.11° C | 64% | 1024.8 hPa | - | - | - | - |
| 1777166531 | 7.22° C | 61% | 1024.7 hPa | - | - | - | - |
| 1777165631 | 6.67° C | 63% | 1024.7 hPa | - | - | - | - |
| 1777164731 | 6.67° C | 62% | 1024.6 hPa | - | - | - | - |
| 1777163831 | 7.22° C | 63% | 1024.5 hPa | - | - | - | - |
| 1777162931 | 7.22° C | 62% | 1024.5 hPa | - | - | - | - |
| 1777162031 | 6.67° C | 62% | 1024.4 hPa | - | - | - | - |
| 1777161131 | 7.22° C | 62% | 1024.3 hPa | - | - | - | - |
| 1777160231 | 7.22° C | 62% | 1024.3 hPa | - | - | - | - |
| 1777159330 | 7.22° C | 61% | 1024.1 hPa | - | - | - | - |
| 1777158430 | 7.78° C | 59% | 1024.2 hPa | - | - | - | - |
| 1777157530 | 8.33° C | 57% | 1024.1 hPa | - | - | - | - |
| 1777156630 | 8.33° C | 58% | 1024 hPa | - | - | - | - |
| 1777155730 | 8.33° C | 57% | 1024.1 hPa | - | - | - | - |
| 1777154830 | 8.89° C | 55% | 1024.1 hPa | - | - | - | - |
| 1777153930 | 8.89° C | 55% | 1024.1 hPa | - | - | - | - |
| 1777153030 | 9.44° C | 54% | 1024 hPa | - | - | - | - |
| 1777152130 | 9.44° C | 53% | 1024 hPa | - | - | - | - |
* Rain since midnight (hover to see other rain measurements)
** Current wind speed in m/s (hover to see current wind gust speed)